createdAt,value
2019-03-10T00:02:26.500Z,84.44
2019-03-10T00:04:58.989Z,84.37
2019-03-10T00:07:34.036Z,84.89
2019-03-10T00:10:08.700Z,85.19
2019-03-10T00:12:41.926Z,85.17
2019-03-10T00:15:16.378Z,85.34
2019-03-10T00:17:49.091Z,85.53
2019-03-10T00:20:22.079Z,85.71
2019-03-10T00:22:59.060Z,85.98
2019-03-10T00:25:31.814Z,86.05
2019-03-10T00:28:06.733Z,86.04
2019-03-10T00:30:40.578Z,86.07
2019-03-10T00:33:13.332Z,86.12
2019-03-10T00:35:46.003Z,86.05
2019-03-10T00:38:19.141Z,86.13
2019-03-10T00:41:34.921Z,86.04
2019-03-10T00:45:02.777Z,86.07
2019-03-10T00:48:43.166Z,86.08
2019-03-10T00:52:08.456Z,85.99
2019-03-10T00:54:52.890Z,85.86
2019-03-10T00:57:25.636Z,85.83
2019-03-10T01:00:00.547Z,85.92
2019-03-10T01:02:35.272Z,85.96
2019-03-10T01:05:08.197Z,86.04
2019-03-10T01:07:41.424Z,85.83
2019-03-10T01:10:15.354Z,85.76
2019-03-10T01:12:48.335Z,85.67
2019-03-10T01:15:22.815Z,85.55
2019-03-10T01:17:56.605Z,85.59
2019-03-10T01:20:30.222Z,85.57
2019-03-10T01:23:04.544Z,85.58
2019-03-10T01:25:37.286Z,85.53
2019-03-10T01:28:10.094Z,85.23
2019-03-10T01:31:08.057Z,85.04
2019-03-10T01:34:11.604Z,84.92
2019-03-10T01:36:44.299Z,84.93
2019-03-10T01:39:18.589Z,84.86
2019-03-10T01:41:51.457Z,84.90
2019-03-10T01:44:24.949Z,84.98
2019-03-10T01:46:57.897Z,84.96
2019-03-10T01:49:31.198Z,84.74
2019-03-10T01:52:04.402Z,84.81
2019-03-10T01:54:37.278Z,84.80
2019-03-10T01:57:10.053Z,84.83
2019-03-10T01:59:43.883Z,84.82
2019-03-10T02:02:25.186Z,84.92
2019-03-10T02:04:58.907Z,84.81
2019-03-10T02:07:33.490Z,84.74
2019-03-10T02:10:08.066Z,84.64
2019-03-10T02:12:41.386Z,84.48
2019-03-10T02:15:16.838Z,84.43
2019-03-10T02:17:50.682Z,84.32
2019-03-10T02:20:23.420Z,84.20
2019-03-10T02:22:57.920Z,84.36
2019-03-10T02:25:30.472Z,84.54
2019-03-10T02:28:03.701Z,84.78
2019-03-10T02:30:36.515Z,85.18
2019-03-10T02:33:09.087Z,85.57
2019-03-10T02:35:42.064Z,85.86
2019-03-10T02:38:14.548Z,86.32
2019-03-10T02:40:47.184Z,86.87
2019-03-10T02:43:20.227Z,87.31
2019-03-10T02:45:52.806Z,87.86
2019-03-10T02:48:25.398Z,88.05
2019-03-10T02:50:58.334Z,86.65
2019-03-10T02:53:31.335Z,86.57
2019-03-10T02:56:03.863Z,87.01
2019-03-10T02:58:36.663Z,87.45
2019-03-10T03:01:09.416Z,88.15
2019-03-10T03:03:42.223Z,88.72
2019-03-10T03:06:15.917Z,89.25
2019-03-10T03:08:48.369Z,89.70
2019-03-10T03:11:20.956Z,90.04
2019-03-10T03:13:55.026Z,90.40
2019-03-10T03:16:29.413Z,90.83
2019-03-10T03:19:01.815Z,91.19
2019-03-10T03:21:42.914Z,91.70
2019-03-10T03:24:17.120Z,92.17
2019-03-10T03:26:50.354Z,92.83
2019-03-10T03:29:23.114Z,93.06
2019-03-10T03:31:55.736Z,93.21
2019-03-10T03:34:28.225Z,93.90
2019-03-10T03:37:01.546Z,94.21
2019-03-10T03:39:43.136Z,94.42
2019-03-10T03:42:15.770Z,94.76
2019-03-10T03:44:49.391Z,95.08
2019-03-10T03:47:21.914Z,95.44
2019-03-10T03:49:56.112Z,95.83
2019-03-10T03:52:28.737Z,96.09
2019-03-10T03:55:01.305Z,96.40
2019-03-10T03:57:35.541Z,96.63
2019-03-10T04:00:08.220Z,96.59
2019-03-10T04:02:44.805Z,96.39
2019-03-10T04:05:17.547Z,96.47
2019-03-10T04:07:50.061Z,96.85
2019-03-10T04:10:22.405Z,97.11
2019-03-10T04:12:55.215Z,97.57
2019-03-10T04:15:27.763Z,98.05
2019-03-10T04:18:00.628Z,98.54
2019-03-10T04:20:35.035Z,99.01
2019-03-10T04:23:07.562Z,99.49
2019-03-10T04:25:40.071Z,99.78
2019-03-10T04:28:12.960Z,99.82
2019-03-10T04:30:46.835Z,100.00
2019-03-10T04:33:19.780Z,100.00
2019-03-10T04:35:52.878Z,100.00
2019-03-10T04:38:25.454Z,100.00
2019-03-10T04:40:57.849Z,100.00
2019-03-10T04:43:30.647Z,100.00
2019-03-10T04:46:03.214Z,100.00
2019-03-10T04:48:35.802Z,100.00
2019-03-10T04:51:08.541Z,100.00
2019-03-10T04:53:41.263Z,100.00
2019-03-10T04:56:20.249Z,100.00
2019-03-10T04:58:53.119Z,100.00
2019-03-10T05:01:25.691Z,100.00
2019-03-10T05:03:58.784Z,100.00
2019-03-10T05:06:31.914Z,100.00
2019-03-10T05:09:08.077Z,100.00
2019-03-10T05:11:40.937Z,100.00
2019-03-10T05:14:13.993Z,100.00
2019-03-10T05:16:47.677Z,100.00
2019-03-10T05:19:20.358Z,100.00
2019-03-10T05:21:53.434Z,100.00
2019-03-10T05:24:26.113Z,100.00
2019-03-10T05:26:58.582Z,100.00
2019-03-10T05:29:31.699Z,100.00
2019-03-10T05:32:04.881Z,100.00
2019-03-10T05:34:38.198Z,100.00
2019-03-10T05:37:11.304Z,100.00
2019-03-10T05:39:43.837Z,100.00
2019-03-10T05:42:16.973Z,100.00
2019-03-10T05:44:49.908Z,100.00
2019-03-10T05:47:22.658Z,100.00
2019-03-10T05:49:55.254Z,100.00
2019-03-10T05:52:29.666Z,100.00
2019-03-10T05:55:02.844Z,100.00
2019-03-10T05:57:35.295Z,100.00
2019-03-10T06:00:07.763Z,100.00
2019-03-10T06:02:40.282Z,100.00
2019-03-10T06:05:13.491Z,100.00
2019-03-10T06:07:46.222Z,100.00
2019-03-10T06:10:19.146Z,100.00
2019-03-10T06:12:51.871Z,100.00
2019-03-10T06:15:24.702Z,100.00
2019-03-10T06:17:57.284Z,100.00
2019-03-10T06:20:30.269Z,100.00
2019-03-10T06:23:03.135Z,100.00
2019-03-10T06:25:36.202Z,100.00
2019-03-10T06:28:08.874Z,100.00
2019-03-10T06:30:42.058Z,100.00
2019-03-10T06:33:14.528Z,100.00
2019-03-10T06:35:47.089Z,100.00
2019-03-10T06:38:20.146Z,100.00
2019-03-10T06:40:52.606Z,100.00
2019-03-10T06:43:25.240Z,100.00
2019-03-10T06:45:58.507Z,100.00
2019-03-10T06:48:31.098Z,100.00
2019-03-10T06:51:04.062Z,100.00
2019-03-10T06:53:38.399Z,100.00
2019-03-10T06:56:11.851Z,100.00
2019-03-10T06:58:45.114Z,100.00
2019-03-10T07:01:19.335Z,100.00
2019-03-10T07:03:51.827Z,100.00
2019-03-10T07:06:25.736Z,100.00
2019-03-10T07:08:59.981Z,100.00
2019-03-10T07:11:32.547Z,100.00
2019-03-10T07:14:05.183Z,100.00
2019-03-10T07:16:37.766Z,100.00
2019-03-10T07:19:10.572Z,100.00
2019-03-10T07:21:43.130Z,100.00
2019-03-10T07:24:17.077Z,100.00
2019-03-10T07:26:49.958Z,100.00
2019-03-10T07:29:26.808Z,100.00
2019-03-10T07:32:22.310Z,100.00
2019-03-10T07:35:31.113Z,100.00
2019-03-10T07:38:28.729Z,100.00
2019-03-10T07:41:06.769Z,100.00
2019-03-10T07:43:47.371Z,100.00
2019-03-10T07:46:26.986Z,100.00
2019-03-10T07:49:09.550Z,100.00
2019-03-10T07:51:50.430Z,100.00
2019-03-10T07:54:32.201Z,100.00
2019-03-10T07:57:24.531Z,100.00
2019-03-10T08:00:15.710Z,100.00
2019-03-10T08:03:09.862Z,100.00
2019-03-10T08:06:14.007Z,100.00
2019-03-10T08:08:52.527Z,100.00
2019-03-10T08:11:30.934Z,100.00
2019-03-10T08:14:16.677Z,100.00
2019-03-10T08:17:02.176Z,100.00
2019-03-10T08:19:47.016Z,100.00
2019-03-10T08:22:34.936Z,100.00
2019-03-10T08:25:21.267Z,100.00
2019-03-10T08:28:09.594Z,100.00
2019-03-10T08:30:48.628Z,100.00
2019-03-10T08:33:43.009Z,100.00
2019-03-10T08:36:24.470Z,100.00
2019-03-10T08:39:25.467Z,100.00
2019-03-10T08:42:25.678Z,100.00
2019-03-10T08:45:05.759Z,100.00
2019-03-10T08:48:00.210Z,100.00
2019-03-10T08:50:55.345Z,100.00
2019-03-10T08:53:41.452Z,100.00
2019-03-10T08:56:29.858Z,100.00
2019-03-10T08:59:29.140Z,100.00
2019-03-10T09:02:42.837Z,100.00
2019-03-10T09:05:25.118Z,100.00
2019-03-10T09:08:04.564Z,100.00
2019-03-10T09:10:52.728Z,100.00
2019-03-10T09:13:36.532Z,100.00
2019-03-10T09:16:21.473Z,100.00
2019-03-10T09:19:06.943Z,100.00
2019-03-10T09:21:53.948Z,100.00
2019-03-10T09:24:48.794Z,100.00
2019-03-10T09:27:43.288Z,100.00
2019-03-10T09:30:28.697Z,100.00
2019-03-10T09:33:18.841Z,100.00
2019-03-10T09:36:16.726Z,100.00
2019-03-10T09:39:21.319Z,100.00
2019-03-10T09:42:14.914Z,100.00
2019-03-10T09:44:56.402Z,100.00
2019-03-10T09:47:51.716Z,100.00
2019-03-10T09:50:55.018Z,100.00
2019-03-10T09:53:49.029Z,100.00
2019-03-10T09:56:39.932Z,100.00
2019-03-10T09:59:20.676Z,100.00
2019-03-10T10:02:06.583Z,100.00
2019-03-10T10:04:50.161Z,100.00
2019-03-10T10:07:32.746Z,100.00
2019-03-10T10:10:15.845Z,100.00
2019-03-10T10:13:00.332Z,100.00
2019-03-10T10:15:51.632Z,100.00
2019-03-10T10:18:43.468Z,100.00
2019-03-10T10:21:22.037Z,100.00
2019-03-10T10:24:18.906Z,100.00
2019-03-10T10:27:13.420Z,100.00
2019-03-10T10:29:58.696Z,100.00
2019-03-10T10:33:05.795Z,99.71
2019-03-10T10:36:11.409Z,98.37
2019-03-10T10:39:13.327Z,94.11
2019-03-10T10:41:54.229Z,91.54
2019-03-10T10:44:48.817Z,92.20
2019-03-10T10:47:50.916Z,90.26
2019-03-10T10:50:57.713Z,90.03
2019-03-10T10:53:56.025Z,90.14
2019-03-10T10:56:58.331Z,88.51
2019-03-10T10:59:41.651Z,88.32
2019-03-10T11:02:23.026Z,82.37
2019-03-10T11:05:15.948Z,80.77
2019-03-10T11:07:58.489Z,81.35
2019-03-10T11:10:56.362Z,80.38
2019-03-10T11:13:56.961Z,78.57
2019-03-10T11:16:38.808Z,75.20
2019-03-10T11:19:19.807Z,74.88
2019-03-10T11:22:10.888Z,76.86
2019-03-10T11:25:06.261Z,80.18
2019-03-10T11:28:09.109Z,84.70
2019-03-10T11:31:02.356Z,86.88
2019-03-10T11:33:53.112Z,89.62
2019-03-10T11:36:47.277Z,91.25
2019-03-10T11:39:30.838Z,91.82
2019-03-10T11:42:11.144Z,90.82
2019-03-10T11:45:10.059Z,90.18
2019-03-10T11:48:08.266Z,91.03
2019-03-10T11:50:58.839Z,91.52
2019-03-10T11:53:58.580Z,90.64
2019-03-10T11:56:57.834Z,91.33
2019-03-10T12:00:06.303Z,91.85
2019-03-10T12:02:49.103Z,91.42
2019-03-10T12:05:31.874Z,90.05
2019-03-10T12:08:12.398Z,89.15
2019-03-10T12:10:46.819Z,88.44
2019-03-10T12:13:25.752Z,83.97
2019-03-10T12:16:01.456Z,82.82
2019-03-10T12:18:37.747Z,82.54
2019-03-10T12:21:16.053Z,84.26
2019-03-10T12:23:55.295Z,85.24
2019-03-10T12:26:34.928Z,85.32
2019-03-10T12:29:16.589Z,84.62
2019-03-10T12:31:57.394Z,86.86
2019-03-10T12:34:37.003Z,86.71
2019-03-10T12:37:20.128Z,86.23
2019-03-10T12:39:58.548Z,85.76
2019-03-10T12:42:35.431Z,85.56
2019-03-10T12:45:17.508Z,87.12
2019-03-10T12:48:05.596Z,88.00
2019-03-10T12:51:04.590Z,90.09
2019-03-10T12:53:53.948Z,92.61
2019-03-10T12:56:45.348Z,94.51
2019-03-10T12:59:28.745Z,96.12
2019-03-10T13:02:15.106Z,97.89
2019-03-10T13:04:58.732Z,99.30
2019-03-10T13:07:45.781Z,100.00
2019-03-10T13:10:32.558Z,100.00
2019-03-10T13:13:06.484Z,100.00
2019-03-10T13:15:49.016Z,100.00
2019-03-10T13:18:22.623Z,100.00
2019-03-10T13:21:08.053Z,96.00
2019-03-10T13:23:47.320Z,93.36
2019-03-10T13:26:30.906Z,89.67
2019-03-10T13:29:04.803Z,86.46
2019-03-10T13:31:46.514Z,85.38
2019-03-10T13:34:30.363Z,82.12
2019-03-10T13:37:15.513Z,78.62
2019-03-10T13:39:59.040Z,73.49
2019-03-10T13:42:37.984Z,69.16
2019-03-10T13:45:18.661Z,64.74
2019-03-10T13:47:53.670Z,60.45
2019-03-10T13:50:33.202Z,58.78
2019-03-10T13:53:11.395Z,58.30
2019-03-10T13:55:51.511Z,59.05
2019-03-10T13:58:28.415Z,59.53
2019-03-10T14:01:06.264Z,60.04
2019-03-10T14:03:50.592Z,59.67
2019-03-10T14:06:41.412Z,60.26
2019-03-10T14:09:16.553Z,59.91
2019-03-10T14:11:50.819Z,59.56
2019-03-10T14:14:27.328Z,58.52
2019-03-10T14:17:00.371Z,56.91
2019-03-10T14:19:33.459Z,55.94
2019-03-10T14:22:13.288Z,55.86
2019-03-10T14:24:46.308Z,56.23
2019-03-10T14:27:21.934Z,54.08
2019-03-10T14:29:56.600Z,54.90
2019-03-10T14:32:35.366Z,55.44
2019-03-10T14:35:22.669Z,55.39
2019-03-10T14:38:15.951Z,57.16
2019-03-10T14:40:56.139Z,57.74
2019-03-10T14:43:29.385Z,58.29
2019-03-10T14:46:05.510Z,57.14
2019-03-10T14:48:51.264Z,57.79
2019-03-10T14:51:42.023Z,58.76
2019-03-10T14:54:18.810Z,59.69
2019-03-10T14:56:55.489Z,59.11
2019-03-10T14:59:32.119Z,58.80
2019-03-10T15:02:07.335Z,59.39
2019-03-10T15:04:44.153Z,59.37
2019-03-10T15:07:19.381Z,59.35
2019-03-10T15:09:57.839Z,59.32
2019-03-10T15:12:31.851Z,59.68
2019-03-10T15:15:22.439Z,59.68
2019-03-10T15:17:59.516Z,59.38
2019-03-10T15:20:44.904Z,59.73
2019-03-10T15:23:33.531Z,59.91
2019-03-10T15:26:12.512Z,60.09
2019-03-10T15:28:54.311Z,59.98
2019-03-10T15:31:32.402Z,60.68
2019-03-10T15:34:11.685Z,60.62
2019-03-10T15:36:57.511Z,60.51
2019-03-10T15:39:38.971Z,59.47
2019-03-10T15:42:13.684Z,60.19
2019-03-10T15:45:33.573Z,60.87
2019-03-10T15:48:07.637Z,60.24
2019-03-10T15:50:41.195Z,61.03
2019-03-10T15:53:21.190Z,60.74
2019-03-10T15:55:56.764Z,61.36
2019-03-10T15:58:31.927Z,62.66
2019-03-10T16:01:07.150Z,62.93
2019-03-10T16:03:45.241Z,63.00
2019-03-10T16:06:21.136Z,63.64
2019-03-10T16:08:55.888Z,64.25
2019-03-10T16:11:29.081Z,64.87
2019-03-10T16:14:04.338Z,65.29
2019-03-10T16:16:41.637Z,65.79
2019-03-10T16:19:14.663Z,66.63
2019-03-10T16:21:48.479Z,67.85
2019-03-10T16:24:21.648Z,68.45
2019-03-10T16:26:54.351Z,69.57
2019-03-10T16:29:32.713Z,71.31
2019-03-10T16:32:07.903Z,73.27
2019-03-10T16:34:43.169Z,74.76
2019-03-10T16:37:22.035Z,75.92
2019-03-10T16:39:57.489Z,76.27
2019-03-10T16:42:40.021Z,76.27
2019-03-10T16:45:26.396Z,76.77
2019-03-10T16:48:08.168Z,76.92
2019-03-10T16:50:46.385Z,76.70
2019-03-10T16:53:27.505Z,76.51
2019-03-10T16:56:03.235Z,79.03
2019-03-10T16:58:38.366Z,81.65
2019-03-10T17:01:15.034Z,82.26
2019-03-10T17:03:49.836Z,84.48
2019-03-10T17:06:26.046Z,86.50
2019-03-10T17:08:59.673Z,88.39
2019-03-10T17:11:39.259Z,90.32
2019-03-10T17:14:17.463Z,91.50
2019-03-10T17:16:54.216Z,92.46
2019-03-10T17:19:29.058Z,92.91
2019-03-10T17:22:34.930Z,92.87
2019-03-10T17:25:16.518Z,92.83
2019-03-10T17:27:52.621Z,93.19
2019-03-10T17:30:30.423Z,93.73
2019-03-10T17:33:06.503Z,93.58
2019-03-10T17:35:49.687Z,93.55
2019-03-10T17:38:24.458Z,94.18
2019-03-10T17:40:59.937Z,94.52
2019-03-10T17:43:36.541Z,94.52
2019-03-10T17:46:11.191Z,94.10
2019-03-10T17:48:46.559Z,93.99
2019-03-10T17:51:23.261Z,94.25
2019-03-10T17:53:57.165Z,94.21
2019-03-10T17:56:37.085Z,94.85
2019-03-10T17:59:11.864Z,95.32
2019-03-10T18:01:50.158Z,95.50
2019-03-10T18:04:24.728Z,96.66
2019-03-10T18:07:30.277Z,95.80
2019-03-10T18:10:35.938Z,95.13
2019-03-10T18:13:32.153Z,92.27
2019-03-10T18:16:18.400Z,89.99
2019-03-10T18:18:59.372Z,89.74
2019-03-10T18:21:41.425Z,89.34
2019-03-10T18:24:19.975Z,87.12
2019-03-10T18:26:56.811Z,86.81
2019-03-10T18:29:33.995Z,87.03
2019-03-10T18:32:13.209Z,85.62
2019-03-10T18:34:49.047Z,83.53
2019-03-10T18:37:23.701Z,82.10
2019-03-10T18:39:57.967Z,80.28
2019-03-10T18:42:31.799Z,80.76
2019-03-10T18:45:22.528Z,79.05
2019-03-10T18:47:57.805Z,78.91
2019-03-10T18:50:32.149Z,78.21
2019-03-10T18:53:06.669Z,77.67
2019-03-10T18:55:40.193Z,77.09
2019-03-10T18:58:14.348Z,77.17
2019-03-10T19:00:47.875Z,75.75
2019-03-10T19:03:26.536Z,75.37
2019-03-10T19:06:00.121Z,74.24
2019-03-10T19:08:35.924Z,75.19
2019-03-10T19:11:10.645Z,76.65
2019-03-10T19:13:48.777Z,74.26
2019-03-10T19:16:34.938Z,74.44
2019-03-10T19:19:17.701Z,74.98
2019-03-10T19:21:55.448Z,75.58
2019-03-10T19:24:30.308Z,76.01
2019-03-10T19:27:06.351Z,75.77
2019-03-10T19:29:40.170Z,76.43
2019-03-10T19:32:14.221Z,76.60
2019-03-10T19:34:52.664Z,76.62
2019-03-10T19:37:30.410Z,76.81
2019-03-10T19:43:28.759Z,77.41
2019-03-10T19:46:02.275Z,77.52
2019-03-10T19:48:36.213Z,78.15
2019-03-10T19:51:10.066Z,77.93
2019-03-10T19:53:46.176Z,77.67
2019-03-10T19:56:24.015Z,77.74
2019-03-10T20:01:57.584Z,77.61
2019-03-10T20:04:32.205Z,80.67
2019-03-10T20:07:05.810Z,83.56
2019-03-10T20:09:45.509Z,86.85
2019-03-10T20:12:19.030Z,89.43
2019-03-10T20:14:51.815Z,91.21
2019-03-10T20:17:24.851Z,92.84
2019-03-10T20:20:10.024Z,93.41
2019-03-10T20:22:46.329Z,93.95
2019-03-10T20:25:20.144Z,94.73
2019-03-10T20:27:53.703Z,95.59
2019-03-10T20:30:29.389Z,96.93
2019-03-10T20:33:04.781Z,98.21
2019-03-10T20:35:38.208Z,98.29
2019-03-10T20:38:12.343Z,98.71
2019-03-10T20:40:47.049Z,99.09
2019-03-10T20:43:22.469Z,99.30
2019-03-10T20:45:57.134Z,99.51
2019-03-10T20:48:33.316Z,99.67
2019-03-10T20:51:08.734Z,99.70
2019-03-10T20:53:42.956Z,99.74
2019-03-10T20:56:16.938Z,99.83
2019-03-10T20:58:50.469Z,100.00
2019-03-10T21:01:32.038Z,100.00
2019-03-10T21:04:08.261Z,99.96
2019-03-10T21:06:42.325Z,100.00
2019-03-10T21:09:19.626Z,100.00
2019-03-10T21:11:54.196Z,100.00
2019-03-10T21:14:29.473Z,100.00
2019-03-10T21:17:02.774Z,100.00
2019-03-10T21:19:35.948Z,100.00
2019-03-10T21:22:10.594Z,100.00
2019-03-10T21:24:46.374Z,100.00
2019-03-10T21:27:22.290Z,100.00
2019-03-10T21:29:54.908Z,100.00
2019-03-10T21:32:32.293Z,100.00
2019-03-10T21:35:16.861Z,100.00
2019-03-10T21:37:52.129Z,100.00
2019-03-10T21:40:26.255Z,100.00
2019-03-10T21:43:02.984Z,100.00
2019-03-10T21:45:36.701Z,100.00
2019-03-10T21:48:10.621Z,100.00
2019-03-10T21:50:45.260Z,100.00
2019-03-10T21:53:18.771Z,100.00
2019-03-10T21:55:56.463Z,100.00
2019-03-10T21:58:29.172Z,100.00
2019-03-10T22:01:03.099Z,100.00
2019-03-10T22:03:38.728Z,100.00
2019-03-10T22:06:12.419Z,100.00
2019-03-10T22:08:45.149Z,100.00
2019-03-10T22:11:20.922Z,100.00
2019-03-10T22:13:55.976Z,100.00
2019-03-10T22:16:29.808Z,100.00
2019-03-10T22:19:03.521Z,100.00
2019-03-10T22:21:37.230Z,100.00
2019-03-10T22:24:11.662Z,100.00
2019-03-10T22:26:45.038Z,100.00
2019-03-10T22:29:18.546Z,100.00
2019-03-10T22:31:54.902Z,100.00
2019-03-10T22:34:28.722Z,100.00
2019-03-10T22:37:01.575Z,100.00
2019-03-10T22:39:35.032Z,100.00
2019-03-10T22:42:09.340Z,100.00
2019-03-10T22:44:42.496Z,100.00
2019-03-10T22:47:15.035Z,100.00
2019-03-10T22:49:47.729Z,100.00
2019-03-10T22:52:21.650Z,100.00
2019-03-10T22:54:56.020Z,100.00
2019-03-10T22:57:29.504Z,100.00
2019-03-10T23:00:08.905Z,100.00
2019-03-10T23:02:41.542Z,100.00
2019-03-10T23:05:14.259Z,100.00
2019-03-10T23:07:50.154Z,100.00
2019-03-10T23:10:27.798Z,100.00
2019-03-10T23:13:00.783Z,100.00
2019-03-10T23:15:41.431Z,100.00
2019-03-10T23:18:14.037Z,100.00
2019-03-10T23:20:55.051Z,100.00
2019-03-10T23:23:28.997Z,100.00
2019-03-10T23:26:02.423Z,100.00
2019-03-10T23:28:35.634Z,100.00
2019-03-10T23:31:09.198Z,99.43
2019-03-10T23:33:41.683Z,98.30
2019-03-10T23:36:16.034Z,97.32
2019-03-10T23:38:48.495Z,96.34
2019-03-10T23:41:24.236Z,95.37
2019-03-10T23:43:57.556Z,94.57
2019-03-10T23:46:30.944Z,94.35
2019-03-10T23:49:03.606Z,94.24
2019-03-10T23:51:36.828Z,94.11
2019-03-10T23:54:09.331Z,94.08
2019-03-10T23:56:41.964Z,94.12
2019-03-10T23:59:15.901Z,94.10
